Disclaimer

Please do not use the information listed here in-flight or in-navigation, as they are not provided to us by the airports but are provided by volunteers, so they might be outdated.

Search


Regions


Airport information page

Radio informations:
Tower (TWR) - 120.2 MHz
Approach (APP) - 120.2 MHz

Airport informations:
Latitude: 47° 01' 31.00" N
Longitude: 021° 54' 09.00" E
Elevation: 465 feet - 142 meters
Operating hours: Remarks
Operating agency: Civil government, landing fees and diplomatic clearance may be required
Timezone: UTC+2(+3DT)
Fuel: N/A

Runway information:
01/19 - 5906 x 98 feet< - >1800 x 30 meters

Recent METARs:
LROD 180830Z 08003KT 010V120 CAVOK 05/M01 Q1026
LROD 180900Z 13004KT 090V190 CAVOK 06/M01 Q1026
LROD 180930Z VRB01KT CAVOK 06/M02 Q1025

Airport on the map: